sensor_id;sensor_type;location;lat;lon;timestamp;temperature;humidity
9925;DHT22;5001;51.674;7.868;2022-09-28T00:01:21;8.20;99.90
9925;DHT22;5001;51.674;7.868;2022-09-28T00:03:50;8.30;99.90
9925;DHT22;5001;51.674;7.868;2022-09-28T00:06:20;8.30;99.90
9925;DHT22;5001;51.674;7.868;2022-09-28T00:08:48;8.20;99.90
9925;DHT22;5001;51.674;7.868;2022-09-28T00:11:18;8.20;99.90
9925;DHT22;5001;51.674;7.868;2022-09-28T00:13:51;8.30;99.90
9925;DHT22;5001;51.674;7.868;2022-09-28T00:16:20;8.30;99.90
9925;DHT22;5001;51.674;7.868;2022-09-28T00:18:48;8.30;99.90
9925;DHT22;5001;51.674;7.868;2022-09-28T00:21:19;8.30;99.90
9925;DHT22;5001;51.674;7.868;2022-09-28T00:23:54;8.40;99.90
9925;DHT22;5001;51.674;7.868;2022-09-28T00:26:50;8.40;99.90
9925;DHT22;5001;51.674;7.868;2022-09-28T00:31:57;8.40;99.90
9925;DHT22;5001;51.674;7.868;2022-09-28T00:34:26;8.50;99.90
9925;DHT22;5001;51.674;7.868;2022-09-28T00:36:53;8.50;99.90
9925;DHT22;5001;51.674;7.868;2022-09-28T00:39:20;8.60;99.90
9925;DHT22;5001;51.674;7.868;2022-09-28T00:41:48;8.60;99.90
9925;DHT22;5001;51.674;7.868;2022-09-28T00:46:53;8.50;99.90
9925;DHT22;5001;51.674;7.868;2022-09-28T00:54:52;8.60;99.90
9925;DHT22;5001;51.674;7.868;2022-09-28T00:57:21;8.60;99.90
9925;DHT22;5001;51.674;7.868;2022-09-28T00:59:50;8.60;99.90
9925;DHT22;5001;51.674;7.868;2022-09-28T01:02:18;8.60;99.90
9925;DHT22;5001;51.674;7.868;2022-09-28T01:04:47;8.60;99.90
9925;DHT22;5001;51.674;7.868;2022-09-28T01:07:15;8.60;99.90
9925;DHT22;5001;51.674;7.868;2022-09-28T01:09:43;8.60;99.90
9925;DHT22;5001;51.674;7.868;2022-09-28T01:12:12;8.60;99.90
9925;DHT22;5001;51.674;7.868;2022-09-28T01:14:39;8.60;99.90
9925;DHT22;5001;51.674;7.868;2022-09-28T01:17:15;8.60;99.90
9925;DHT22;5001;51.674;7.868;2022-09-28T01:25:32;8.80;99.90
9925;DHT22;5001;51.674;7.868;2022-09-28T01:28:10;8.80;99.90
9925;DHT22;5001;51.674;7.868;2022-09-28T01:30:48;8.70;99.90
9925;DHT22;5001;51.674;7.868;2022-09-28T01:33:21;8.70;99.90
9925;DHT22;5001;51.674;7.868;2022-09-28T01:35:50;8.70;99.90
9925;DHT22;5001;51.674;7.868;2022-09-28T01:38:23;8.70;99.90
9925;DHT22;5001;51.674;7.868;2022-09-28T01:40:51;8.70;99.90
9925;DHT22;5001;51.674;7.868;2022-09-28T01:43:22;8.60;99.90
9925;DHT22;5001;51.674;7.868;2022-09-28T01:46:04;8.60;99.90
9925;DHT22;5001;51.674;7.868;2022-09-28T01:48:51;8.60;99.90
9925;DHT22;5001;51.674;7.868;2022-09-28T01:51:33;8.50;99.90
9925;DHT22;5001;51.674;7.868;2022-09-28T01:54:12;8.50;99.90
9925;DHT22;5001;51.674;7.868;2022-09-28T01:59:32;8.40;99.90
9925;DHT22;5001;51.674;7.868;2022-09-28T02:02:04;8.40;99.90
9925;DHT22;5001;51.674;7.868;2022-09-28T02:04:58;8.40;99.90
9925;DHT22;5001;51.674;7.868;2022-09-28T02:07:36;8.40;99.90
9925;DHT22;5001;51.674;7.868;2022-09-28T02:10:23;8.40;99.90
9925;DHT22;5001;51.674;7.868;2022-09-28T02:13:27;8.40;99.90
9925;DHT22;5001;51.674;7.868;2022-09-28T02:15:55;8.40;99.90
9925;DHT22;5001;51.674;7.868;2022-09-28T02:18:24;8.30;99.90
9925;DHT22;5001;51.674;7.868;2022-09-28T02:20:58;8.20;99.90
9925;DHT22;5001;51.674;7.868;2022-09-28T02:23:28;8.00;99.90
9925;DHT22;5001;51.674;7.868;2022-09-28T02:26:07;8.00;99.90
9925;DHT22;5001;51.674;7.868;2022-09-28T02:28:37;7.90;99.90
9925;DHT22;5001;51.674;7.868;2022-09-28T02:31:04;7.90;99.90
9925;DHT22;5001;51.674;7.868;2022-09-28T02:33:39;7.90;99.90
9925;DHT22;5001;51.674;7.868;2022-09-28T02:36:09;7.90;99.90
9925;DHT22;5001;51.674;7.868;2022-09-28T02:38:37;7.80;99.90
9925;DHT22;5001;51.674;7.868;2022-09-28T02:43:56;7.80;99.90
9925;DHT22;5001;51.674;7.868;2022-09-28T02:46:57;7.80;99.90
9925;DHT22;5001;51.674;7.868;2022-09-28T02:55:36;7.60;99.90
9925;DHT22;5001;51.674;7.868;2022-09-28T03:00:56;7.50;99.90
9925;DHT22;5001;51.674;7.868;2022-09-28T03:03:37;7.40;99.90
9925;DHT22;5001;51.674;7.868;2022-09-28T03:06:42;7.40;99.90
9925;DHT22;5001;51.674;7.868;2022-09-28T03:11:50;7.60;99.90
9925;DHT22;5001;51.674;7.868;2022-09-28T03:14:19;7.50;99.90
9925;DHT22;5001;51.674;7.868;2022-09-28T03:16:53;7.50;99.90
9925;DHT22;5001;51.674;7.868;2022-09-28T03:19:25;7.50;99.90
9925;DHT22;5001;51.674;7.868;2022-09-28T03:21:53;7.60;99.90
9925;DHT22;5001;51.674;7.868;2022-09-28T03:24:21;7.70;99.90
9925;DHT22;5001;51.674;7.868;2022-09-28T03:26:48;7.80;99.90
9925;DHT22;5001;51.674;7.868;2022-09-28T03:29:15;7.80;99.90
9925;DHT22;5001;51.674;7.868;2022-09-28T03:31:45;7.80;99.90
9925;DHT22;5001;51.674;7.868;2022-09-28T03:34:13;7.80;99.90
9925;DHT22;5001;51.674;7.868;2022-09-28T03:36:41;7.90;99.90
9925;DHT22;5001;51.674;7.868;2022-09-28T03:39:08;7.90;99.90
9925;DHT22;5001;51.674;7.868;2022-09-28T03:41:36;7.90;99.90
9925;DHT22;5001;51.674;7.868;2022-09-28T03:44:04;7.90;99.90
9925;DHT22;5001;51.674;7.868;2022-09-28T03:46:32;7.90;99.90
9925;DHT22;5001;51.674;7.868;2022-09-28T03:49:04;7.90;99.90
9925;DHT22;5001;51.674;7.868;2022-09-28T03:51:31;7.90;99.90
9925;DHT22;5001;51.674;7.868;2022-09-28T03:53:58;7.90;99.90
9925;DHT22;5001;51.674;7.868;2022-09-28T03:56:25;7.80;99.90
9925;DHT22;5001;51.674;7.868;2022-09-28T03:58:52;7.80;99.90
9925;DHT22;5001;51.674;7.868;2022-09-28T04:01:19;7.80;99.90
9925;DHT22;5001;51.674;7.868;2022-09-28T04:03:46;7.80;99.90
9925;DHT22;5001;51.674;7.868;2022-09-28T04:06:14;7.80;99.90
9925;DHT22;5001;51.674;7.868;2022-09-28T04:08:40;7.80;99.90
9925;DHT22;5001;51.674;7.868;2022-09-28T04:11:09;7.80;99.90
9925;DHT22;5001;51.674;7.868;2022-09-28T04:13:36;7.80;99.90
9925;DHT22;5001;51.674;7.868;2022-09-28T04:16:06;7.90;99.90
9925;DHT22;5001;51.674;7.868;2022-09-28T04:18:35;7.80;99.90
9925;DHT22;5001;51.674;7.868;2022-09-28T04:21:23;7.80;99.90
9925;DHT22;5001;51.674;7.868;2022-09-28T04:24:00;7.80;99.90
9925;DHT22;5001;51.674;7.868;2022-09-28T04:26:27;7.80;99.90
9925;DHT22;5001;51.674;7.868;2022-09-28T04:28:55;7.70;99.90
9925;DHT22;5001;51.674;7.868;2022-09-28T04:31:50;7.80;99.90
9925;DHT22;5001;51.674;7.868;2022-09-28T04:34:20;7.80;99.90
9925;DHT22;5001;51.674;7.868;2022-09-28T04:36:48;7.80;99.90
9925;DHT22;5001;51.674;7.868;2022-09-28T04:39:16;7.80;99.90
9925;DHT22;5001;51.674;7.868;2022-09-28T04:41:51;7.80;99.90
9925;DHT22;5001;51.674;7.868;2022-09-28T04:44:18;7.80;99.90
9925;DHT22;5001;51.674;7.868;2022-09-28T04:46:49;7.80;99.90
9925;DHT22;5001;51.674;7.868;2022-09-28T04:49:36;7.80;99.90
9925;DHT22;5001;51.674;7.868;2022-09-28T04:52:16;7.80;99.90
9925;DHT22;5001;51.674;7.868;2022-09-28T04:54:50;7.80;99.90
9925;DHT22;5001;51.674;7.868;2022-09-28T04:57:17;7.80;99.90
9925;DHT22;5001;51.674;7.868;2022-09-28T04:59:44;7.80;99.90
9925;DHT22;5001;51.674;7.868;2022-09-28T05:02:11;7.80;99.90
9925;DHT22;5001;51.674;7.868;2022-09-28T05:05:18;7.80;99.90
9925;DHT22;5001;51.674;7.868;2022-09-28T05:08:24;7.80;99.90
9925;DHT22;5001;51.674;7.868;2022-09-28T05:11:06;7.80;99.90
9925;DHT22;5001;51.674;7.868;2022-09-28T05:13:43;7.90;99.90
9925;DHT22;5001;51.674;7.868;2022-09-28T05:16:16;7.90;99.90
9925;DHT22;5001;51.674;7.868;2022-09-28T05:19:02;7.80;99.90
9925;DHT22;5001;51.674;7.868;2022-09-28T05:21:29;7.80;99.90
9925;DHT22;5001;51.674;7.868;2022-09-28T05:23:58;7.80;99.90
9925;DHT22;5001;51.674;7.868;2022-09-28T05:26:25;7.90;99.90
9925;DHT22;5001;51.674;7.868;2022-09-28T05:28:52;7.90;99.90
9925;DHT22;5001;51.674;7.868;2022-09-28T05:31:40;7.90;99.90
9925;DHT22;5001;51.674;7.868;2022-09-28T05:34:20;8.00;99.90
9925;DHT22;5001;51.674;7.868;2022-09-28T05:36:47;8.00;99.90
9925;DHT22;5001;51.674;7.868;2022-09-28T05:39:17;8.00;99.90
9925;DHT22;5001;51.674;7.868;2022-09-28T05:41:44;8.00;99.90
9925;DHT22;5001;51.674;7.868;2022-09-28T05:44:11;8.10;99.90
9925;DHT22;5001;51.674;7.868;2022-09-28T05:46:41;8.10;99.90
9925;DHT22;5001;51.674;7.868;2022-09-28T05:49:09;8.00;99.90
9925;DHT22;5001;51.674;7.868;2022-09-28T05:51:36;8.10;99.90
9925;DHT22;5001;51.674;7.868;2022-09-28T05:54:05;8.10;99.90
9925;DHT22;5001;51.674;7.868;2022-09-28T05:56:35;8.10;99.90
9925;DHT22;5001;51.674;7.868;2022-09-28T05:59:04;8.00;99.90
9925;DHT22;5001;51.674;7.868;2022-09-28T06:01:31;8.20;99.90
9925;DHT22;5001;51.674;7.868;2022-09-28T06:04:00;8.10;99.90
9925;DHT22;5001;51.674;7.868;2022-09-28T06:06:27;8.20;99.90
9925;DHT22;5001;51.674;7.868;2022-09-28T06:08:55;8.30;99.90
9925;DHT22;5001;51.674;7.868;2022-09-28T06:11:40;8.30;99.90
9925;DHT22;5001;51.674;7.868;2022-09-28T06:14:20;8.10;99.90
9925;DHT22;5001;51.674;7.868;2022-09-28T06:16:47;8.10;99.90
9925;DHT22;5001;51.674;7.868;2022-09-28T06:19:16;8.10;99.90
9925;DHT22;5001;51.674;7.868;2022-09-28T06:22:03;8.10;99.90
9925;DHT22;5001;51.674;7.868;2022-09-28T06:24:34;8.20;99.90
9925;DHT22;5001;51.674;7.868;2022-09-28T06:27:01;8.20;99.90
9925;DHT22;5001;51.674;7.868;2022-09-28T06:29:28;8.30;99.90
9925;DHT22;5001;51.674;7.868;2022-09-28T06:31:56;8.30;99.90
9925;DHT22;5001;51.674;7.868;2022-09-28T06:34:23;8.30;99.90
9925;DHT22;5001;51.674;7.868;2022-09-28T06:36:50;8.40;99.90
9925;DHT22;5001;51.674;7.868;2022-09-28T06:39:17;8.60;99.90
9925;DHT22;5001;51.674;7.868;2022-09-28T06:41:44;8.70;99.90
9925;DHT22;5001;51.674;7.868;2022-09-28T06:44:14;8.90;99.90
9925;DHT22;5001;51.674;7.868;2022-09-28T06:47:10;9.20;99.90
9925;DHT22;5001;51.674;7.868;2022-09-28T06:49:56;9.60;99.90
9925;DHT22;5001;51.674;7.868;2022-09-28T06:52:26;9.90;99.90
9925;DHT22;5001;51.674;7.868;2022-09-28T06:55:08;10.00;99.90
9925;DHT22;5001;51.674;7.868;2022-09-28T06:57:39;9.90;99.90
9925;DHT22;5001;51.674;7.868;2022-09-28T07:00:11;9.90;99.90
9925;DHT22;5001;51.674;7.868;2022-09-28T07:02:38;9.60;99.90
9925;DHT22;5001;51.674;7.868;2022-09-28T07:05:13;9.50;99.90
9925;DHT22;5001;51.674;7.868;2022-09-28T07:08:14;9.50;99.90
9925;DHT22;5001;51.674;7.868;2022-09-28T07:11:06;9.60;99.90
9925;DHT22;5001;51.674;7.868;2022-09-28T07:13:48;9.40;99.90
9925;DHT22;5001;51.674;7.868;2022-09-28T07:16:20;9.30;99.90
9925;DHT22;5001;51.674;7.868;2022-09-28T07:18:55;9.20;99.90
9925;DHT22;5001;51.674;7.868;2022-09-28T07:21:22;9.30;99.90
9925;DHT22;5001;51.674;7.868;2022-09-28T07:23:58;9.40;99.90
9925;DHT22;5001;51.674;7.868;2022-09-28T07:26:51;9.50;99.90
9925;DHT22;5001;51.674;7.868;2022-09-28T07:29:42;9.50;99.90
9925;DHT22;5001;51.674;7.868;2022-09-28T07:32:30;9.50;99.90
9925;DHT22;5001;51.674;7.868;2022-09-28T07:35:19;9.60;99.90
9925;DHT22;5001;51.674;7.868;2022-09-28T07:38:07;9.60;99.90
9925;DHT22;5001;51.674;7.868;2022-09-28T07:40:35;9.40;99.90
9925;DHT22;5001;51.674;7.868;2022-09-28T07:43:21;9.50;99.90
9925;DHT22;5001;51.674;7.868;2022-09-28T07:45:51;9.70;99.90
9925;DHT22;5001;51.674;7.868;2022-09-28T07:48:20;9.60;99.90
9925;DHT22;5001;51.674;7.868;2022-09-28T07:51:06;9.70;99.90
9925;DHT22;5001;51.674;7.868;2022-09-28T07:53:54;9.90;99.90
9925;DHT22;5001;51.674;7.868;2022-09-28T07:56:39;10.40;99.90
9925;DHT22;5001;51.674;7.868;2022-09-28T07:59:25;11.30;99.90
9925;DHT22;5001;51.674;7.868;2022-09-28T08:02:12;11.40;99.90
9925;DHT22;5001;51.674;7.868;2022-09-28T08:04:40;11.00;99.90
9925;DHT22;5001;51.674;7.868;2022-09-28T08:07:08;10.50;99.90
9925;DHT22;5001;51.674;7.868;2022-09-28T08:09:36;10.20;99.90
9925;DHT22;5001;51.674;7.868;2022-09-28T08:12:15;10.10;99.90
9925;DHT22;5001;51.674;7.868;2022-09-28T08:15:00;10.10;99.90
9925;DHT22;5001;51.674;7.868;2022-09-28T08:17:57;10.10;99.90
9925;DHT22;5001;51.674;7.868;2022-09-28T08:20:29;10.20;99.90
9925;DHT22;5001;51.674;7.868;2022-09-28T08:23:18;10.20;99.90
9925;DHT22;5001;51.674;7.868;2022-09-28T08:25:50;10.40;99.90
9925;DHT22;5001;51.674;7.868;2022-09-28T08:28:22;10.30;99.90
9925;DHT22;5001;51.674;7.868;2022-09-28T08:30:52;10.30;99.90
9925;DHT22;5001;51.674;7.868;2022-09-28T08:33:39;10.20;99.90
9925;DHT22;5001;51.674;7.868;2022-09-28T08:36:26;10.20;99.90
9925;DHT22;5001;51.674;7.868;2022-09-28T08:39:12;10.40;99.90
9925;DHT22;5001;51.674;7.868;2022-09-28T08:42:26;10.40;99.90
9925;DHT22;5001;51.674;7.868;2022-09-28T08:45:11;10.80;99.90
9925;DHT22;5001;51.674;7.868;2022-09-28T08:48:12;11.50;99.90
9925;DHT22;5001;51.674;7.868;2022-09-28T08:51:26;12.10;99.90
9925;DHT22;5001;51.674;7.868;2022-09-28T08:54:43;12.00;99.90
9925;DHT22;5001;51.674;7.868;2022-09-28T08:57:37;11.40;99.90
9925;DHT22;5001;51.674;7.868;2022-09-28T09:00:16;11.40;99.90
9925;DHT22;5001;51.674;7.868;2022-09-28T09:02:44;11.20;1.00
9925;DHT22;5001;51.674;7.868;2022-09-28T09:05:20;11.00;1.00
9925;DHT22;5001;51.674;7.868;2022-09-28T09:14:02;11.20;16.10
9925;DHT22;5001;51.674;7.868;2022-09-28T09:25:49;11.80;1.00
9925;DHT22;5001;51.674;7.868;2022-09-28T09:28:40;12.40;99.90
9925;DHT22;5001;51.674;7.868;2022-09-28T09:46:41;17.60;99.90
9925;DHT22;5001;51.674;7.868;2022-09-28T09:49:48;18.40;1.00
9925;DHT22;5001;51.674;7.868;2022-09-28T09:52:36;17.60;1.00
9925;DHT22;5001;51.674;7.868;2022-09-28T09:55:18;17.00;1.00
9925;DHT22;5001;51.674;7.868;2022-09-28T09:58:25;17.50;1.00
9925;DHT22;5001;51.674;7.868;2022-09-28T10:01:10;17.20;99.90
9925;DHT22;5001;51.674;7.868;2022-09-28T10:04:22;18.50;99.90
9925;DHT22;5001;51.674;7.868;2022-09-28T10:06:56;18.40;99.90
9925;DHT22;5001;51.674;7.868;2022-09-28T10:09:37;18.30;1.00
9925;DHT22;5001;51.674;7.868;2022-09-28T10:12:25;16.80;1.00
9925;DHT22;5001;51.674;7.868;2022-09-28T10:14:52;16.40;1.00
9925;DHT22;5001;51.674;7.868;2022-09-28T10:17:22;16.60;1.00
9925;DHT22;5001;51.674;7.868;2022-09-28T10:20:13;17.80;1.00
9925;DHT22;5001;51.674;7.868;2022-09-28T10:23:31;17.70;1.00
9925;DHT22;5001;51.674;7.868;2022-09-28T10:26:03;19.40;1.00
9925;DHT22;5001;51.674;7.868;2022-09-28T10:28:59;23.90;1.00
9925;DHT22;5001;51.674;7.868;2022-09-28T10:31:46;24.00;1.00
9925;DHT22;5001;51.674;7.868;2022-09-28T10:34:28;25.50;1.00
9925;DHT22;5001;51.674;7.868;2022-09-28T10:37:05;21.30;1.00
9925;DHT22;5001;51.674;7.868;2022-09-28T10:39:54;21.30;1.00
9925;DHT22;5001;51.674;7.868;2022-09-28T10:42:29;20.50;1.00
9925;DHT22;5001;51.674;7.868;2022-09-28T10:45:02;20.80;1.00
9925;DHT22;5001;51.674;7.868;2022-09-28T10:47:34;20.70;1.00
9925;DHT22;5001;51.674;7.868;2022-09-28T10:50:19;18.60;1.00
9925;DHT22;5001;51.674;7.868;2022-09-28T10:52:48;20.90;1.00
9925;DHT22;5001;51.674;7.868;2022-09-28T10:55:35;21.50;1.00
9925;DHT22;5001;51.674;7.868;2022-09-28T11:01:07;21.40;1.00
9925;DHT22;5001;51.674;7.868;2022-09-28T11:04:02;20.30;1.00
9925;DHT22;5001;51.674;7.868;2022-09-28T11:06:28;18.60;1.00
9925;DHT22;5001;51.674;7.868;2022-09-28T11:09:04;18.30;1.00
9925;DHT22;5001;51.674;7.868;2022-09-28T11:11:39;17.00;1.00
9925;DHT22;5001;51.674;7.868;2022-09-28T11:14:24;16.40;1.00
9925;DHT22;5001;51.674;7.868;2022-09-28T11:17:14;16.90;1.00
9925;DHT22;5001;51.674;7.868;2022-09-28T11:19:42;17.10;1.00
9925;DHT22;5001;51.674;7.868;2022-09-28T11:22:26;16.70;1.00
9925;DHT22;5001;51.674;7.868;2022-09-28T11:25:15;17.90;1.00
9925;DHT22;5001;51.674;7.868;2022-09-28T11:30:46;17.40;1.00
9925;DHT22;5001;51.674;7.868;2022-09-28T11:33:37;16.00;1.00
9925;DHT22;5001;51.674;7.868;2022-09-28T11:40:08;15.70;1.00
9925;DHT22;5001;51.674;7.868;2022-09-28T11:42:32;16.30;1.00
9925;DHT22;5001;51.674;7.868;2022-09-28T11:50:25;18.80;1.00
9925;DHT22;5001;51.674;7.868;2022-09-28T11:55:34;18.20;1.00
9925;DHT22;5001;51.674;7.868;2022-09-28T12:00:43;18.30;1.00
9925;DHT22;5001;51.674;7.868;2022-09-28T12:03:17;19.40;1.00
9925;DHT22;5001;51.674;7.868;2022-09-28T12:06:10;19.90;1.00
9925;DHT22;5001;51.674;7.868;2022-09-28T12:08:56;20.10;1.00
9925;DHT22;5001;51.674;7.868;2022-09-28T12:11:56;20.70;1.00
9925;DHT22;5001;51.674;7.868;2022-09-28T12:14:44;19.90;1.00
9925;DHT22;5001;51.674;7.868;2022-09-28T12:19:58;20.40;1.00
9925;DHT22;5001;51.674;7.868;2022-09-28T12:22:35;21.20;1.00
9925;DHT22;5001;51.674;7.868;2022-09-28T12:25:08;20.50;1.00
9925;DHT22;5001;51.674;7.868;2022-09-28T12:27:52;20.10;1.00
9925;DHT22;5001;51.674;7.868;2022-09-28T12:30:23;19.60;1.00
9925;DHT22;5001;51.674;7.868;2022-09-28T12:33:13;20.00;1.00
9925;DHT22;5001;51.674;7.868;2022-09-28T12:36:08;19.90;1.00
9925;DHT22;5001;51.674;7.868;2022-09-28T12:56:01;17.40;1.00
9925;DHT22;5001;51.674;7.868;2022-09-28T13:04:56;16.00;1.00
9925;DHT22;5001;51.674;7.868;2022-09-28T13:18:19;17.30;1.00
9925;DHT22;5001;51.674;7.868;2022-09-28T13:21:12;16.60;1.00
9925;DHT22;5001;51.674;7.868;2022-09-28T13:23:46;16.20;1.00
9925;DHT22;5001;51.674;7.868;2022-09-28T13:26:37;16.10;1.00
9925;DHT22;5001;51.674;7.868;2022-09-28T13:29:14;15.90;1.00
9925;DHT22;5001;51.674;7.868;2022-09-28T13:34:29;15.40;1.00
9925;DHT22;5001;51.674;7.868;2022-09-28T13:37:30;15.20;1.00
9925;DHT22;5001;51.674;7.868;2022-09-28T13:39:58;15.40;1.00
9925;DHT22;5001;51.674;7.868;2022-09-28T13:42:55;15.40;1.00
9925;DHT22;5001;51.674;7.868;2022-09-28T13:45:26;15.40;1.00
9925;DHT22;5001;51.674;7.868;2022-09-28T13:51:25;14.80;1.00
9925;DHT22;5001;51.674;7.868;2022-09-28T13:56:52;14.50;1.00
9925;DHT22;5001;51.674;7.868;2022-09-28T13:59:31;14.40;1.00
9925;DHT22;5001;51.674;7.868;2022-09-28T14:05:05;14.30;1.00
9925;DHT22;5001;51.674;7.868;2022-09-28T14:08:27;14.40;1.00
9925;DHT22;5001;51.674;7.868;2022-09-28T14:16:34;14.70;1.00
9925;DHT22;5001;51.674;7.868;2022-09-28T14:19:04;14.70;1.00
9925;DHT22;5001;51.674;7.868;2022-09-28T14:22:02;14.80;1.00
9925;DHT22;5001;51.674;7.868;2022-09-28T14:30:48;14.20;1.00
9925;DHT22;5001;51.674;7.868;2022-09-28T14:33:27;14.30;1.00
9925;DHT22;5001;51.674;7.868;2022-09-28T14:36:03;14.50;1.00
9925;DHT22;5001;51.674;7.868;2022-09-28T14:38:43;14.40;1.00
9925;DHT22;5001;51.674;7.868;2022-09-28T14:41:34;14.30;1.00
9925;DHT22;5001;51.674;7.868;2022-09-28T14:44:07;14.20;1.00
9925;DHT22;5001;51.674;7.868;2022-09-28T14:46:36;14.20;1.00
9925;DHT22;5001;51.674;7.868;2022-09-28T14:49:05;14.40;1.00
9925;DHT22;5001;51.674;7.868;2022-09-28T14:54:26;14.50;1.00
9925;DHT22;5001;51.674;7.868;2022-09-28T14:59:42;14.30;1.00
9925;DHT22;5001;51.674;7.868;2022-09-28T15:02:23;14.30;1.00
9925;DHT22;5001;51.674;7.868;2022-09-28T15:04:57;14.30;1.00
9925;DHT22;5001;51.674;7.868;2022-09-28T15:07:28;14.20;1.00
9925;DHT22;5001;51.674;7.868;2022-09-28T15:09:59;14.10;1.00
9925;DHT22;5001;51.674;7.868;2022-09-28T15:12:29;13.90;1.00
9925;DHT22;5001;51.674;7.868;2022-09-28T15:15:02;14.00;1.00
9925;DHT22;5001;51.674;7.868;2022-09-28T15:17:38;14.00;1.00
9925;DHT22;5001;51.674;7.868;2022-09-28T15:22:47;14.00;1.00
9925;DHT22;5001;51.674;7.868;2022-09-28T15:25:21;15.00;1.00
9925;DHT22;5001;51.674;7.868;2022-09-28T15:27:52;14.00;1.00
9925;DHT22;5001;51.674;7.868;2022-09-28T15:30:33;14.00;1.00
9925;DHT22;5001;51.674;7.868;2022-09-28T15:33:02;13.90;1.00
9925;DHT22;5001;51.674;7.868;2022-09-28T15:36:01;14.00;1.00
9925;DHT22;5001;51.674;7.868;2022-09-28T15:38:30;14.10;1.00
9925;DHT22;5001;51.674;7.868;2022-09-28T15:41:04;14.10;1.00
9925;DHT22;5001;51.674;7.868;2022-09-28T15:43:33;14.00;1.00
9925;DHT22;5001;51.674;7.868;2022-09-28T15:46:17;13.90;1.00
9925;DHT22;5001;51.674;7.868;2022-09-28T15:48:53;13.90;1.00
9925;DHT22;5001;51.674;7.868;2022-09-28T15:51:25;13.90;1.00
9925;DHT22;5001;51.674;7.868;2022-09-28T15:54:04;13.80;1.00
9925;DHT22;5001;51.674;7.868;2022-09-28T15:56:55;13.70;1.00
9925;DHT22;5001;51.674;7.868;2022-09-28T15:59:33;13.70;1.00
9925;DHT22;5001;51.674;7.868;2022-09-28T16:02:10;13.60;1.00
9925;DHT22;5001;51.674;7.868;2022-09-28T16:15:28;12.80;1.00
9925;DHT22;5001;51.674;7.868;2022-09-28T16:18:23;12.80;1.00
9925;DHT22;5001;51.674;7.868;2022-09-28T16:20:53;12.60;1.00
9925;DHT22;5001;51.674;7.868;2022-09-28T16:23:26;12.50;11.50
9925;DHT22;5001;51.674;7.868;2022-09-28T16:25:56;12.50;28.60
9925;DHT22;5001;51.674;7.868;2022-09-28T16:33:45;12.10;99.90
9925;DHT22;5001;51.674;7.868;2022-09-28T16:36:17;12.10;99.90
9925;DHT22;5001;51.674;7.868;2022-09-28T16:38:44;12.00;99.90
9925;DHT22;5001;51.674;7.868;2022-09-28T16:41:13;12.00;99.90
9925;DHT22;5001;51.674;7.868;2022-09-28T16:43:42;11.90;99.90
9925;DHT22;5001;51.674;7.868;2022-09-28T16:46:14;11.80;99.90
9925;DHT22;5001;51.674;7.868;2022-09-28T16:48:47;11.80;99.90
9925;DHT22;5001;51.674;7.868;2022-09-28T16:51:19;11.70;99.90
9925;DHT22;5001;51.674;7.868;2022-09-28T16:53:47;11.60;99.90
9925;DHT22;5001;51.674;7.868;2022-09-28T16:56:34;11.50;99.90
9925;DHT22;5001;51.674;7.868;2022-09-28T16:59:02;11.50;1.00
9925;DHT22;5001;51.674;7.868;2022-09-28T17:01:30;11.40;1.00
9925;DHT22;5001;51.674;7.868;2022-09-28T17:03:58;11.30;1.00
9925;DHT22;5001;51.674;7.868;2022-09-28T17:06:26;11.30;1.00
9925;DHT22;5001;51.674;7.868;2022-09-28T17:08:53;11.30;1.00
9925;DHT22;5001;51.674;7.868;2022-09-28T17:11:23;11.30;1.00
9925;DHT22;5001;51.674;7.868;2022-09-28T17:13:51;11.20;1.00
9925;DHT22;5001;51.674;7.868;2022-09-28T17:16:25;11.10;1.00
9925;DHT22;5001;51.674;7.868;2022-09-28T17:19:23;11.10;1.00
9925;DHT22;5001;51.674;7.868;2022-09-28T17:21:51;10.90;1.00
9925;DHT22;5001;51.674;7.868;2022-09-28T17:24:19;10.90;1.00
9925;DHT22;5001;51.674;7.868;2022-09-28T17:26:49;10.90;1.00
9925;DHT22;5001;51.674;7.868;2022-09-28T17:29:17;10.90;1.00
9925;DHT22;5001;51.674;7.868;2022-09-28T17:31:45;10.80;1.00
9925;DHT22;5001;51.674;7.868;2022-09-28T17:34:13;10.80;1.00
9925;DHT22;5001;51.674;7.868;2022-09-28T17:36:42;10.70;1.00
9925;DHT22;5001;51.674;7.868;2022-09-28T17:39:11;10.70;1.00
9925;DHT22;5001;51.674;7.868;2022-09-28T17:41:39;10.60;8.50
9925;DHT22;5001;51.674;7.868;2022-09-28T17:44:06;10.60;21.10
9925;DHT22;5001;51.674;7.868;2022-09-28T17:46:38;10.60;33.80
9925;DHT22;5001;51.674;7.868;2022-09-28T17:49:11;10.60;29.60
9925;DHT22;5001;51.674;7.868;2022-09-28T17:51:38;10.60;63.10
9925;DHT22;5001;51.674;7.868;2022-09-28T17:54:06;10.60;59.60
9925;DHT22;5001;51.674;7.868;2022-09-28T17:56:34;10.60;99.90
9925;DHT22;5001;51.674;7.868;2022-09-28T17:59:04;10.60;99.90
9925;DHT22;5001;51.674;7.868;2022-09-28T18:01:37;10.70;99.90
9925;DHT22;5001;51.674;7.868;2022-09-28T18:04:06;10.80;49.10
9925;DHT22;5001;51.674;7.868;2022-09-28T18:06:34;10.90;29.70
9925;DHT22;5001;51.674;7.868;2022-09-28T18:09:03;10.90;51.80
9925;DHT22;5001;51.674;7.868;2022-09-28T18:11:31;10.90;72.60
9925;DHT22;5001;51.674;7.868;2022-09-28T18:13:59;10.90;83.10
9925;DHT22;5001;51.674;7.868;2022-09-28T18:16:27;11.00;81.60
9925;DHT22;5001;51.674;7.868;2022-09-28T18:18:54;11.00;73.40
9925;DHT22;5001;51.674;7.868;2022-09-28T18:21:22;11.00;99.60
9925;DHT22;5001;51.674;7.868;2022-09-28T18:23:49;11.00;98.30
9925;DHT22;5001;51.674;7.868;2022-09-28T18:26:16;11.10;59.10
9925;DHT22;5001;51.674;7.868;2022-09-28T18:28:46;11.10;1.00
9925;DHT22;5001;51.674;7.868;2022-09-28T18:31:14;11.10;1.00
9925;DHT22;5001;51.674;7.868;2022-09-28T18:33:47;11.10;1.00
9925;DHT22;5001;51.674;7.868;2022-09-28T18:36:27;11.10;1.00
9925;DHT22;5001;51.674;7.868;2022-09-28T18:38:55;11.10;1.00
9925;DHT22;5001;51.674;7.868;2022-09-28T18:41:23;11.10;38.00
9925;DHT22;5001;51.674;7.868;2022-09-28T18:43:50;11.20;1.00
9925;DHT22;5001;51.674;7.868;2022-09-28T18:46:19;11.10;1.00
9925;DHT22;5001;51.674;7.868;2022-09-28T18:48:47;11.10;1.00
9925;DHT22;5001;51.674;7.868;2022-09-28T18:51:14;11.10;1.00
9925;DHT22;5001;51.674;7.868;2022-09-28T18:53:44;11.10;1.00
9925;DHT22;5001;51.674;7.868;2022-09-28T18:56:14;11.10;1.00
9925;DHT22;5001;51.674;7.868;2022-09-28T18:58:45;11.00;1.00
9925;DHT22;5001;51.674;7.868;2022-09-28T19:01:17;11.00;1.00
9925;DHT22;5001;51.674;7.868;2022-09-28T19:04:03;11.00;1.00
9925;DHT22;5001;51.674;7.868;2022-09-28T19:06:31;11.00;1.00
9925;DHT22;5001;51.674;7.868;2022-09-28T19:08:58;11.00;1.00
9925;DHT22;5001;51.674;7.868;2022-09-28T19:11:26;10.90;1.00
9925;DHT22;5001;51.674;7.868;2022-09-28T19:13:56;10.90;1.00
9925;DHT22;5001;51.674;7.868;2022-09-28T19:16:26;10.90;1.00
9925;DHT22;5001;51.674;7.868;2022-09-28T19:18:58;10.80;1.00
9925;DHT22;5001;51.674;7.868;2022-09-28T19:21:29;10.80;1.00
9925;DHT22;5001;51.674;7.868;2022-09-28T19:24:00;10.70;1.00
9925;DHT22;5001;51.674;7.868;2022-09-28T19:26:38;10.60;1.00
9925;DHT22;5001;51.674;7.868;2022-09-28T19:29:05;10.50;1.00
9925;DHT22;5001;51.674;7.868;2022-09-28T19:31:32;10.30;1.00
9925;DHT22;5001;51.674;7.868;2022-09-28T19:33:59;10.20;1.00
9925;DHT22;5001;51.674;7.868;2022-09-28T19:36:27;10.20;69.50
9925;DHT22;5001;51.674;7.868;2022-09-28T19:38:58;10.00;99.90
9925;DHT22;5001;51.674;7.868;2022-09-28T19:41:34;10.00;99.90
9925;DHT22;5001;51.674;7.868;2022-09-28T19:44:20;9.90;99.90
9925;DHT22;5001;51.674;7.868;2022-09-28T19:46:57;9.80;99.90
9925;DHT22;5001;51.674;7.868;2022-09-28T19:49:25;9.70;1.00
9925;DHT22;5001;51.674;7.868;2022-09-28T19:51:54;9.60;1.00
9925;DHT22;5001;51.674;7.868;2022-09-28T19:54:42;9.60;1.00
9925;DHT22;5001;51.674;7.868;2022-09-28T19:57:11;9.50;1.00
9925;DHT22;5001;51.674;7.868;2022-09-28T19:59:38;9.50;1.00